Time;durP1;ratioP1;P1;durP2;ratioP2;P2;SDS_P1;SDS_P2;PMS_P1;PMS_P2;Temp;Humidity;BMP_temperature;BMP_pressure;BME280_temperature;BME280_humidity;BME280_pressure;Samples;Min_cycle;Max_cycle;Signal;HPM_P1;HPM_P2
2023/03/01 09:07:28;;;;;;;25.03;14.80;;;-0.70;99.90;;;;;;5140605;27;20299;-81
2023/03/01 09:12:15;;;;;;;22.03;15.13;;;-0.60;99.90;;;;;;5140919;27;20646;-81
2023/03/01 09:16:13;;;;;;;23.63;15.07;;;-0.70;99.90;;;;;;5141345;27;20267;-83
2023/03/01 09:19:59;;;;;;;21.80;13.83;;;-0.60;99.90;;;;;;5141341;27;20282;-81
2023/03/01 09:24:02;;;;;;;20.27;14.43;;;;;;;;;;5141420;27;20263;-82
2023/03/01 09:28:08;;;;;;;19.70;13.67;;;-0.50;99.90;;;;;;5141864;27;20287;-81
2023/03/01 09:31:24;;;;;;;19.70;12.70;;;-0.40;99.90;;;;;;5144908;27;20279;-80
2023/03/01 09:35:03;;;;;;;20.67;13.73;;;-0.40;99.90;;;;;;5137846;27;20725;-80
2023/03/01 09:38:15;;;;;;;20.87;14.17;;;-0.40;99.90;;;;;;5137559;27;20645;-82
2023/03/01 09:42:04;;;;;;;16.63;12.23;;;-0.30;99.90;;;;;;5136498;27;20277;-79
2023/03/01 09:46:03;;;;;;;22.17;14.07;;;-0.30;99.90;;;;;;5136645;27;20271;-80
2023/03/01 09:50:10;;;;;;;18.43;13.10;;;-0.30;99.90;;;;;;5136916;27;20267;-79
2023/03/01 09:54:00;;;;;;;20.13;13.10;;;-0.20;99.90;;;;;;5136213;27;20275;-80
2023/03/01 09:58:29;;;;;;;20.83;14.40;;;-0.10;99.90;;;;;;5135754;27;20287;-79
2023/03/01 10:01:58;;;;;;;17.70;12.77;;;-0.10;99.90;;;;;;5135152;27;20264;-80
2023/03/01 10:06:01;;;;;;;16.33;11.60;;;0.00;99.90;;;;;;5135092;27;20275;-80
2023/03/01 10:10:03;;;;;;;18.90;11.93;;;0.00;99.90;;;;;;5113775;27;20529;-81
2023/03/01 10:14:15;;;;;;;16.13;12.73;;;-0.10;99.90;;;;;;5112695;27;20535;-81
2023/03/01 10:16:50;;;;;;;18.40;13.13;;;-0.10;99.90;;;;;;5110684;28;20837;-82
2023/03/01 10:19:24;;;;;;;19.80;12.83;;;-0.10;99.90;;;;;;5114612;28;20385;-81
2023/03/01 10:24:14;;;;;;;18.03;12.73;;;0.00;99.90;;;;;;5138164;27;20267;-81
2023/03/01 10:26:51;;;;;;;21.67;13.40;;;-0.10;99.90;;;;;;5120330;28;20436;-80
2023/03/01 10:29:20;;;;;;;19.47;13.20;;;0.00;99.90;;;;;;5137494;28;20411;-80
2023/03/01 10:31:48;;;;;;;19.80;12.90;;;0.00;99.90;;;;;;5136670;28;20421;-79
2023/03/01 10:34:17;;;;;;;17.67;13.57;;;-0.10;99.90;;;;;;5137634;28;20409;-79
2023/03/01 10:36:47;;;;;;;23.80;14.70;;;-0.10;99.90;;;;;;5138754;28;20428;-79
2023/03/01 10:39:18;;;;;;;19.50;13.97;;;0.00;99.90;;;;;;5137330;28;20506;-81
2023/03/01 10:41:55;;;;;;;20.07;13.63;;;0.10;99.90;;;;;;5137495;27;20409;-80
2023/03/01 10:44:39;;;;;;;19.33;13.33;;;0.10;99.90;;;;;;5135523;28;20528;-80
2023/03/01 10:47:12;;;;;;;20.60;15.03;;;0.00;99.90;;;;;;5137799;27;20427;-81
2023/03/01 10:49:38;;;;;;;24.53;15.23;;;0.10;99.90;;;;;;5136505;28;20542;-81
2023/03/01 10:52:34;;;;;;;24.50;15.23;;;0.10;99.90;;;;;;5137075;27;20862;-81
2023/03/01 10:55:30;;;;;;;21.27;14.97;;;0.10;99.90;;;;;;5128491;28;20530;-79
2023/03/01 10:58:19;;;;;;;25.43;14.50;;;0.10;99.90;;;;;;5136486;28;20436;-80
2023/03/01 11:00:57;;;;;;;19.87;14.40;;;0.10;99.90;;;;;;5136812;28;20417;-82
2023/03/01 11:03:30;;;;;;;21.60;14.67;;;0.10;99.90;;;;;;5137672;27;20440;-80
2023/03/01 11:06:21;;;;;;;19.53;14.03;;;0.20;99.90;;;;;;5138278;27;20447;-80
2023/03/01 11:08:49;;;;;;;19.33;13.00;;;0.30;99.90;;;;;;5136192;28;20928;-81
2023/03/01 11:11:23;;;;;;;20.03;14.10;;;0.40;99.90;;;;;;5135973;28;20469;-80
2023/03/01 11:13:56;;;;;;;20.07;14.77;;;0.40;99.90;;;;;;5137202;27;20401;-80
2023/03/01 11:16:28;;;;;;;19.23;14.77;;;0.40;99.90;;;;;;5137573;27;20764;-82
2023/03/01 11:19:09;;;;;;;17.93;13.33;;;0.40;99.90;;;;;;5135938;28;20415;-80
2023/03/01 11:21:57;;;;;;;19.63;14.33;;;0.40;99.90;;;;;;5135931;28;20499;-81
2023/03/01 11:24:53;;;;;;;21.33;14.43;;;0.30;99.90;;;;;;5124563;27;20413;-81
2023/03/01 11:27:24;;;;;;;20.10;13.70;;;0.40;99.90;;;;;;5133240;28;20462;-80
2023/03/01 11:30:02;;;;;;;21.23;15.43;;;0.40;99.90;;;;;;5137827;27;20851;-81
2023/03/01 11:32:35;;;;;;;19.57;14.50;;;0.30;99.90;;;;;;5137857;28;20457;-81
2023/03/01 11:35:26;;;;;;;22.03;14.90;;;0.40;99.90;;;;;;5125492;28;20410;-81
2023/03/01 11:38:01;;;;;;;21.87;14.37;;;0.30;99.90;;;;;;5116571;28;20444;-81
2023/03/01 11:40:35;;;;;;;21.73;15.27;;;0.30;99.90;;;;;;5125163;27;20965;-81
2023/03/01 11:43:38;;;;;;;22.80;15.97;;;0.30;99.90;;;;;;5122302;28;20480;-81
2023/03/01 11:46:24;;;;;;;19.83;13.90;;;0.40;99.90;;;;;;5124595;28;20405;-81
2023/03/01 11:49:13;;;;;;;20.63;14.33;;;0.40;99.90;;;;;;5124572;28;20405;-81
2023/03/01 11:52:04;;;;;;;21.43;14.60;;;0.40;99.90;;;;;;5123296;28;20417;-81
2023/03/01 11:55:08;;;;;;;20.40;14.23;;;0.40;99.90;;;;;;5115442;28;20421;-82
2023/03/01 11:57:51;;;;;;;22.80;15.03;;;0.40;99.90;;;;;;5125067;28;20460;-81
2023/03/01 12:00:38;;;;;;;20.90;15.37;;;0.50;99.90;;;;;;5123667;28;20419;-81
2023/03/01 12:03:33;;;;;;;21.00;14.67;;;0.50;99.90;;;;;;5123016;28;21198;-83
2023/03/01 12:06:17;;;;;;;22.67;15.10;;;0.70;99.90;;;;;;5117092;28;20426;-82
2023/03/01 12:08:57;;;;;;;21.77;14.33;;;0.70;99.90;;;;;;5125097;28;20424;-81
2023/03/01 12:11:35;;;;;;;20.43;14.77;;;0.50;99.90;;;;;;5124185;28;20424;-81
2023/03/01 12:14:16;;;;;;;21.67;14.00;;;0.50;99.90;;;;;;5125293;28;20400;-82
2023/03/01 12:16:48;;;;;;;18.50;13.77;;;0.50;99.90;;;;;;5125462;28;20474;-82
2023/03/01 12:19:39;;;;;;;20.70;15.00;;;0.60;99.90;;;;;;5125072;28;20408;-81
2023/03/01 12:22:30;;;;;;;19.97;15.37;;;0.60;99.90;;;;;;5123907;28;20476;-82
2023/03/01 12:25:04;;;;;;;20.87;15.03;;;0.70;99.90;;;;;;5126163;27;20488;-82
2023/03/01 12:27:38;;;;;;;23.67;15.73;;;0.70;99.90;;;;;;5127157;28;20513;-82
2023/03/01 12:30:19;;;;;;;20.93;13.97;;;0.60;99.90;;;;;;5131181;28;20413;-82
2023/03/01 12:33:13;;;;;;;22.07;14.53;;;0.60;99.90;;;;;;5122661;28;20413;-82
2023/03/01 12:36:04;;;;;;;21.10;13.93;;;0.70;99.90;;;;;;5123172;28;20421;-82
2023/03/01 12:38:37;;;;;;;19.13;13.70;;;0.70;99.90;;;;;;5133190;28;20436;-81
2023/03/01 12:41:21;;;;;;;19.33;14.50;;;0.60;99.90;;;;;;5132351;28;20465;-82
2023/03/01 12:44:10;;;;;;;24.47;15.60;;;0.60;99.90;;;;;;5123250;28;20456;-82
2023/03/01 12:46:58;;;;;;;26.00;16.20;;;0.60;99.90;;;;;;5119779;28;20482;-82
2023/03/01 12:49:49;;;;;;;21.93;15.70;;;0.60;99.90;;;;;;5121486;28;20416;-81
2023/03/01 12:52:34;;;;;;;23.50;16.33;;;0.60;99.90;;;;;;5123360;28;20413;-82
2023/03/01 12:55:06;;;;;;;20.30;14.40;;;0.70;99.90;;;;;;5120333;28;20409;-82
2023/03/01 12:57:40;;;;;;;23.30;16.10;;;0.80;99.90;;;;;;5116401;28;20429;-82
2023/03/01 13:00:33;;;;;;;25.07;16.03;;;0.70;99.90;;;;;;5115186;28;20413;-82
2023/03/01 13:03:11;;;;;;;22.40;15.20;;;0.70;99.90;;;;;;5119172;28;21015;-81
2023/03/01 13:05:57;;;;;;;20.43;15.03;;;0.80;99.90;;;;;;5121115;28;20405;-82
2023/03/01 13:08:44;;;;;;;20.10;15.03;;;0.80;99.90;;;;;;5121769;28;20501;-81
2023/03/01 13:11:21;;;;;;;21.03;15.50;;;0.80;99.90;;;;;;5120168;28;20441;-81
2023/03/01 13:13:48;;;;;;;26.90;16.53;;;0.80;99.90;;;;;;5121577;28;20500;-82
2023/03/01 13:16:29;;;;;;;20.00;14.90;;;0.80;99.90;;;;;;5118986;28;20409;-83
2023/03/01 13:19:24;;;;;;;23.53;16.60;;;0.90;99.90;;;;;;5120119;28;20423;-81
2023/03/01 13:21:54;;;;;;;24.40;16.73;;;1.00;99.90;;;;;;5121530;28;20398;-82
2023/03/01 13:24:31;;;;;;;25.93;16.23;;;1.00;99.90;;;;;;5120035;28;20447;-81
2023/03/01 13:27:17;;;;;;;24.10;16.93;;;0.90;99.90;;;;;;5120199;28;20425;-81
2023/03/01 13:29:59;;;;;;;24.67;17.70;;;0.70;99.90;;;;;;5112965;28;20585;-83
2023/03/01 13:32:39;;;;;;;22.83;16.93;;;0.70;99.90;;;;;;5119912;28;20504;-83
2023/03/01 13:35:14;;;;;;;22.93;14.90;;;0.70;99.90;;;;;;5118903;28;20436;-82
2023/03/01 13:37:41;;;;;;;25.80;15.80;;;0.70;99.90;;;;;;5119548;28;20803;-82
2023/03/01 13:40:18;;;;;;;21.87;15.43;;;0.80;99.90;;;;;;5120459;28;20425;-82
2023/03/01 13:42:46;;;;;;;24.97;17.10;;;0.90;99.90;;;;;;5119761;28;20452;-81
2023/03/01 13:45:24;;;;;;;21.37;15.30;;;1.00;99.90;;;;;;5120506;28;20417;-82
2023/03/01 13:47:58;;;;;;;27.63;16.53;;;1.00;99.90;;;;;;5120589;28;20552;-83
2023/03/01 13:50:27;;;;;;;23.30;16.27;;;1.00;99.90;;;;;;5122400;28;20852;-82
2023/03/01 13:53:02;;;;;;;25.73;15.50;;;0.90;99.90;;;;;;5120523;28;20833;-83
2023/03/01 13:55:55;;;;;;;26.70;17.17;;;1.00;99.90;;;;;;5121001;28;20424;-82
2023/03/01 13:58:25;;;;;;;26.17;17.17;;;1.00;99.90;;;;;;5121632;28;20935;-82
2023/03/01 14:01:01;;;;;;;25.20;15.53;;;1.10;99.90;;;;;;5122110;28;20418;-83
2023/03/01 14:03:29;;;;;;;22.87;16.50;;;1.00;99.90;;;;;;5121145;28;20452;-82
2023/03/01 14:06:07;;;;;;;22.60;15.83;;;1.10;99.90;;;;;;5122067;28;20413;-83
2023/03/01 14:08:37;;;;;;;22.77;15.87;;;1.20;99.90;;;;;;5122316;28;20463;-82
2023/03/01 14:11:31;;;;;;;23.23;15.97;;;1.40;99.90;;;;;;5122596;28;20437;-82
2023/03/01 14:14:21;;;;;;;24.90;16.90;;;1.50;99.90;;;;;;5123092;28;20899;-82
2023/03/01 14:17:17;;;;;;;23.60;15.67;;;1.90;99.90;;;;;;5122395;28;20506;-83
2023/03/01 14:19:46;;;;;;;22.77;15.40;;;2.10;99.90;;;;;;5123051;28;20421;-83
2023/03/01 14:22:12;;;;;;;21.80;15.87;;;2.30;99.90;;;;;;5120509;28;20472;-83
2023/03/01 14:24:44;;;;;;;25.13;15.63;;;2.20;99.90;;;;;;5120753;28;20417;-83
2023/03/01 14:27:12;;;;;;;26.70;16.40;;;2.20;99.90;;;;;;5119883;28;20191;-83
2023/03/01 14:29:40;;;;;;;26.93;17.13;;;2.20;99.90;;;;;;5119250;28;20436;-83
2023/03/01 14:32:20;;;;;;;22.53;16.20;;;2.00;99.90;;;;;;5119851;28;20420;-83
2023/03/01 14:34:50;;;;;;;23.40;15.83;;;2.00;99.90;;;;;;5122585;28;20413;-82
2023/03/01 14:37:34;;;;;;;21.93;15.87;;;2.00;99.90;;;;;;5121437;28;20437;-83
2023/03/01 14:40:01;;;;;;;23.20;15.83;;;1.90;99.90;;;;;;5121201;28;20409;-82
2023/03/01 14:42:30;;;;;;;25.20;17.37;;;1.80;99.90;;;;;;5120917;28;20464;-83
2023/03/01 14:44:58;;;;;;;23.77;17.10;;;1.70;99.90;;;;;;5122259;28;20167;-83
2023/03/01 14:47:32;;;;;;;24.13;14.77;;;1.80;99.90;;;;;;5120962;28;20430;-82
2023/03/01 14:50:09;;;;;;;27.43;17.27;;;1.80;99.90;;;;;;5120497;28;20412;-82
2023/03/01 14:52:38;;;;;;;25.23;17.60;;;1.80;99.90;;;;;;5116032;28;20486;-80
2023/03/01 14:55:07;;;;;;;24.60;16.20;;;1.70;99.90;;;;;;5115800;28;20413;-82
2023/03/01 14:57:32;;;;;;;26.53;17.10;;;1.70;99.90;;;;;;5115936;28;20430;-82
2023/03/01 15:00:05;;;;;;;25.03;16.50;;;1.70;99.90;;;;;;5116653;28;20784;-82
2023/03/01 15:02:32;;;;;;;25.13;17.33;;;1.80;99.90;;;;;;5116069;28;20196;-82
2023/03/01 15:05:01;;;;;;;24.90;16.57;;;1.90;99.90;;;;;;5116698;28;20409;-82
2023/03/01 15:07:35;;;;;;;24.73;17.00;;;1.80;99.90;;;;;;5118376;28;20417;-83
2023/03/01 15:10:03;;;;;;;27.13;16.13;;;1.70;99.90;;;;;;5123151;28;20429;-82
2023/03/01 15:12:29;;;;;;;28.00;18.53;;;1.70;99.90;;;;;;5118972;28;20421;-83
2023/03/01 15:14:56;;;;;;;24.77;16.77;;;1.70;99.90;;;;;;5120151;28;20176;-83
2023/03/01 15:17:32;;;;;;;24.37;16.43;;;1.60;99.90;;;;;;5120005;28;20765;-83
2023/03/01 15:19:58;;;;;;;26.23;16.97;;;1.60;99.90;;;;;;5118320;28;20416;-82
2023/03/01 15:22:26;;;;;;;24.10;16.70;;;1.60;99.90;;;;;;5118074;28;20467;-83
2023/03/01 15:24:52;;;;;;;26.63;18.33;;;1.60;99.90;;;;;;5117882;28;20787;-83
2023/03/01 15:27:21;;;;;;;26.60;17.63;;;1.50;99.90;;;;;;5117334;28;20448;-82
2023/03/01 15:29:57;;;;;;;24.40;16.70;;;1.50;99.90;;;;;;5117172;28;20413;-83
2023/03/01 15:32:30;;;;;;;23.77;17.83;;;1.50;99.90;;;;;;5117450;28;20428;-83
2023/03/01 15:35:47;;;;;;;25.93;17.57;;;1.40;99.90;;;;;;5116002;28;20785;-83
2023/03/01 15:38:30;;;;;;;29.00;16.87;;;1.40;99.90;;;;;;5124025;28;20441;-83
2023/03/01 15:40:58;;;;;;;26.77;16.73;;;1.40;99.90;;;;;;5124296;28;20428;-83
2023/03/01 15:43:49;;;;;;;21.83;15.83;;;1.30;99.90;;;;;;5123444;28;20456;-83
2023/03/01 15:46:31;;;;;;;20.43;14.70;;;1.30;99.90;;;;;;5124720;28;20433;-82
2023/03/01 15:49:00;;;;;;;27.40;17.63;;;1.30;99.90;;;;;;5124036;28;20452;-83
2023/03/01 15:51:35;;;;;;;25.23;17.93;;;1.20;99.90;;;;;;5128568;28;20444;-84
2023/03/01 15:54:11;;;;;;;25.20;17.80;;;1.20;99.90;;;;;;5132140;28;20418;-82
2023/03/01 15:56:36;;;;;;;26.37;17.20;;;1.20;99.90;;;;;;5125381;28;20451;-83
2023/03/01 15:59:02;;;;;;;23.97;16.77;;;1.10;99.90;;;;;;5120955;28;20418;-82
2023/03/01 16:01:31;;;;;;;28.33;17.93;;;1.10;99.90;;;;;;5121713;28;20232;-82
2023/03/01 16:03:57;;;;;;;29.57;18.63;;;1.10;99.90;;;;;;5121589;28;20460;-82
2023/03/01 16:06:24;;;;;;;27.37;16.70;;;1.10;99.90;;;;;;5120740;28;20420;-82
2023/03/01 16:08:49;;;;;;;27.17;17.33;;;1.10;99.90;;;;;;5120838;28;20414;-82
2023/03/01 16:11:19;;;;;;;26.63;18.93;;;1.10;99.90;;;;;;5122737;28;20412;-83
2023/03/01 16:13:46;;;;;;;28.50;17.90;;;0.90;99.90;;;;;;5121145;28;20179;-83
2023/03/01 16:16:15;;;;;;;24.30;16.97;;;0.90;99.90;;;;;;5122413;28;20917;-82
